Time;durP1;ratioP1;P1;durP2;ratioP2;P2;SDS_P1;SDS_P2;PMS_P1;PMS_P2;Temp;Humidity;BMP_temperature;BMP_pressure;BME280_temperature;BME280_humidity;BME280_pressure;Samples;Min_cycle;Max_cycle;Signal;HPM_P1;HPM_P2
2023/07/30 00:00:28;;;;;;;5.73;4.93;;;;;23.80;99876.00;;;;2069321;28;20218;-69
2023/07/30 00:01:29;;;;;;;7.30;5.00;;;;;23.80;99872.00;;;;2071625;28;20229;-69
2023/07/30 00:02:29;;;;;;;6.03;4.60;;;;;23.80;99872.00;;;;2066098;28;20206;-69
2023/07/30 00:03:29;;;;;;;6.63;4.80;;;;;23.80;99872.00;;;;2073797;28;20678;-69
2023/07/30 00:04:30;;;;;;;5.47;4.60;;;;;23.80;99874.00;;;;2063986;28;20222;-69
2023/07/30 00:05:30;;;;;;;4.73;4.23;;;;;23.80;99865.00;;;;2071201;28;20301;-69
2023/07/30 00:06:31;;;;;;;5.07;4.10;;;;;23.80;99877.00;;;;2074208;28;20657;-69
2023/07/30 00:07:31;;;;;;;5.37;4.17;;;;;23.80;99872.00;;;;2057725;28;20730;-69
2023/07/30 00:08:31;;;;;;;5.97;4.57;;;;;23.80;99881.00;;;;2072230;28;20226;-69
2023/07/30 00:09:32;;;;;;;5.80;4.10;;;;;23.80;99878.00;;;;2062388;28;20215;-69
2023/07/30 00:10:32;;;;;;;4.97;3.93;;;;;23.80;99881.00;;;;2079674;28;20217;-69
2023/07/30 00:11:32;;;;;;;6.30;4.50;;;;;23.80;99884.00;;;;2074801;28;20226;-69
2023/07/30 00:12:33;;;;;;;4.87;3.90;;;;;23.80;99881.00;;;;2055073;28;20265;-69
2023/07/30 00:13:33;;;;;;;7.73;4.07;;;;;23.80;99882.00;;;;2076735;28;20229;-69
2023/07/30 00:14:33;;;;;;;4.30;3.50;;;;;23.80;99866.00;;;;2066289;28;20225;-69
2023/07/30 00:15:34;;;;;;;4.67;3.23;;;;;23.80;99881.00;;;;2061938;28;20247;-69
2023/07/30 00:16:34;;;;;;;4.77;3.77;;;;;23.80;99885.00;;;;2071439;28;20706;-69
2023/07/30 00:17:34;;;;;;;5.87;4.10;;;;;23.80;99880.00;;;;2061058;28;20242;-69
2023/07/30 00:18:35;;;;;;;4.53;3.70;;;;;23.80;99880.00;;;;2079765;28;20221;-69
2023/07/30 00:19:35;;;;;;;4.70;3.80;;;;;23.80;99877.00;;;;2073069;28;20228;-69
2023/07/30 00:20:35;;;;;;;4.57;3.33;;;;;23.80;99874.00;;;;2076208;28;20272;-69
2023/07/30 00:21:36;;;;;;;4.57;3.93;;;;;23.80;99868.00;;;;2070944;28;20222;-69
2023/07/30 00:22:36;;;;;;;5.83;4.17;;;;;23.80;99874.00;;;;2062390;28;20254;-69
2023/07/30 00:23:36;;;;;;;5.73;3.53;;;;;23.80;99866.00;;;;2077140;28;20279;-69
2023/07/30 00:24:37;;;;;;;3.73;3.30;;;;;23.80;99868.00;;;;2072000;28;20214;-69
2023/07/30 00:25:37;;;;;;;3.80;3.33;;;;;23.80;99872.00;;;;2078547;28;20241;-69
2023/07/30 00:26:38;;;;;;;3.50;3.20;;;;;23.80;99866.00;;;;2072014;28;20217;-69
2023/07/30 00:27:39;;;;;;;4.77;3.20;;;;;23.80;99868.00;;;;2066116;28;20241;-69
2023/07/30 00:28:39;;;;;;;4.18;3.70;;;;;23.80;99862.00;;;;2074295;28;20226;-69
2023/07/30 00:29:40;;;;;;;5.17;3.30;;;;;23.80;99871.00;;;;2073102;28;20583;-69
2023/07/30 00:30:40;;;;;;;4.80;3.30;;;;;23.80;99869.00;;;;2075706;28;20863;-69
2023/07/30 00:31:41;;;;;;;4.03;3.33;;;;;23.80;99876.00;;;;2071455;28;20225;-69
2023/07/30 00:32:43;;;;;;;4.07;3.30;;;;;23.80;99872.00;;;;2061942;28;20633;-69
2023/07/30 00:33:43;;;;;;;4.50;3.70;;;;;23.80;99872.00;;;;2069938;28;20553;-69
2023/07/30 00:34:44;;;;;;;3.83;3.43;;;;;23.80;99879.00;;;;2072789;28;20312;-69
2023/07/30 00:35:44;;;;;;;4.37;3.30;;;;;23.80;99870.00;;;;2074413;28;20668;-69
2023/07/30 00:36:44;;;;;;;3.73;2.93;;;;;23.80;99870.00;;;;2072315;28;20293;-69
2023/07/30 00:37:45;;;;;;;2.97;2.67;;;;;23.80;99866.00;;;;2069467;28;20643;-69
2023/07/30 00:38:45;;;;;;;3.50;3.20;;;;;23.80;99878.00;;;;2074777;28;20701;-69
2023/07/30 00:39:45;;;;;;;3.40;2.73;;;;;23.80;99876.00;;;;2064900;28;20273;-69
2023/07/30 00:40:46;;;;;;;2.90;2.50;;;;;23.80;99878.00;;;;2072673;28;20222;-69
2023/07/30 00:41:46;;;;;;;3.13;2.60;;;;;23.80;99877.00;;;;2069149;28;20225;-69
2023/07/30 00:42:46;;;;;;;4.20;3.07;;;;;23.80;99877.00;;;;2071887;28;20234;-69
2023/07/30 00:43:47;;;;;;;4.70;3.37;;;;;23.80;99871.00;;;;2075915;28;20226;-69
2023/07/30 00:44:47;;;;;;;3.00;2.40;;;;;23.80;99878.00;;;;2076669;28;20282;-69
2023/07/30 00:45:47;;;;;;;4.20;3.20;;;;;23.80;99876.00;;;;2069397;28;20222;-69
2023/07/30 00:46:48;;;;;;;3.57;2.77;;;;;23.80;99870.00;;;;2054420;28;20253;-69
2023/07/30 00:47:48;;;;;;;3.90;2.87;;;;;23.80;99878.00;;;;2062285;28;20222;-69
2023/07/30 00:48:50;;;;;;;3.10;2.63;;;;;23.80;99875.00;;;;2071408;28;20226;-69
2023/07/30 00:49:50;;;;;;;3.85;2.90;;;;;23.80;99880.00;;;;2075069;28;20252;-69
2023/07/30 00:50:51;;;;;;;3.90;2.47;;;;;23.80;99871.00;;;;2073787;28;20219;-69
2023/07/30 00:51:51;;;;;;;3.10;2.80;;;;;23.80;99879.00;;;;2064588;28;20250;-69
2023/07/30 00:52:51;;;;;;;3.70;2.47;;;;;23.80;99880.00;;;;2073178;28;20218;-69
2023/07/30 00:53:52;;;;;;;3.70;2.73;;;;;23.80;99876.00;;;;2070027;28;20568;-69
2023/07/30 00:54:52;;;;;;;4.60;3.20;;;;;23.80;99870.00;;;;2071763;28;20209;-69
2023/07/30 00:55:52;;;;;;;3.27;2.60;;;;;23.80;99873.00;;;;2073009;28;20221;-68
2023/07/30 00:56:53;;;;;;;5.57;3.20;;;;;23.80;99878.00;;;;2056431;28;20281;-68
2023/07/30 00:57:53;;;;;;;5.60;2.83;;;;;23.80;99876.00;;;;2078622;28;20211;-68
2023/07/30 00:58:53;;;;;;;4.10;2.70;;;;;23.80;99879.00;;;;2069179;28;20218;-68
2023/07/30 00:59:54;;;;;;;3.33;2.50;;;;;23.80;99871.00;;;;2062237;28;20320;-68
2023/07/30 01:00:54;;;;;;;3.60;2.50;;;;;23.80;99880.00;;;;2064012;28;20210;-68
2023/07/30 01:01:54;;;;;;;3.23;2.53;;;;;23.80;99876.00;;;;2061597;28;20225;-68
2023/07/30 01:02:55;;;;;;;6.07;2.63;;;;;23.80;99872.00;;;;2069453;28;20218;-68
2023/07/30 01:03:55;;;;;;;2.90;2.60;;;;;23.80;99882.00;;;;2065518;28;20256;-68
2023/07/30 01:04:56;;;;;;;9.20;2.40;;;;;23.80;99877.00;;;;2063354;28;20810;-68
2023/07/30 01:05:56;;;;;;;4.33;2.60;;;;;23.80;99886.00;;;;2063914;28;20285;-68
2023/07/30 01:06:56;;;;;;;3.57;2.63;;;;;23.80;99881.00;;;;2060530;28;20220;-68
2023/07/30 01:07:57;;;;;;;3.27;2.43;;;;;23.80;99882.00;;;;2070036;28;20706;-68
2023/07/30 01:08:57;;;;;;;2.97;2.17;;;;;23.70;99887.00;;;;2070172;28;20226;-68
2023/07/30 01:09:58;;;;;;;3.50;2.33;;;;;23.80;99882.00;;;;2075827;28;20222;-68
2023/07/30 01:10:58;;;;;;;3.97;2.47;;;;;23.70;99880.00;;;;2068325;28;20225;-68
2023/07/30 01:11:59;;;;;;;3.80;2.90;;;;;23.70;99878.00;;;;2059601;28;20556;-68
2023/07/30 01:13:03;;;;;;;2.27;1.90;;;;;23.70;99892.00;;;;2071231;28;20218;-68
2023/07/30 01:14:04;;;;;;;3.70;2.50;;;;;23.70;99880.00;;;;2072017;28;20210;-68
2023/07/30 01:15:05;;;;;;;3.70;2.85;;;;;23.70;99884.00;;;;2060435;28;20621;-68
2023/07/30 01:16:06;;;;;;;3.80;2.60;;;;;23.70;99857.00;;;;2064019;28;20244;-68
2023/07/30 01:17:07;;;;;;;3.25;2.40;;;;;23.70;99891.00;;;;2063895;28;20232;-68
2023/07/30 01:18:07;;;;;;;3.10;2.43;;;;;23.70;99894.00;;;;2075706;28;20695;-68
2023/07/30 01:19:07;;;;;;;4.63;2.50;;;;;23.80;99893.00;;;;2072958;28;20220;-68
2023/07/30 01:20:08;;;;;;;3.70;2.73;;;;;23.70;99892.00;;;;2071390;28;20210;-68
2023/07/30 01:21:08;;;;;;;3.53;2.67;;;;;23.70;99896.00;;;;2070822;28;20202;-68
2023/07/30 01:22:08;;;;;;;3.07;2.30;;;;;23.70;99896.00;;;;2064278;28;20229;-68
2023/07/30 01:23:09;;;;;;;4.00;2.40;;;;;23.70;99892.00;;;;2066859;28;20306;-68
2023/07/30 01:24:09;;;;;;;3.40;2.20;;;;;23.70;99888.00;;;;2066588;28;20213;-68
2023/07/30 01:25:09;;;;;;;2.90;2.40;;;;;23.70;99889.00;;;;2076343;28;20206;-68
2023/07/30 01:26:17;;;;;;;3.90;2.23;;;;;23.70;99892.00;;;;2070647;28;20213;-68
2023/07/30 01:27:28;;;;;;;3.13;2.10;;;;;23.80;99892.00;;;;2056255;28;20313;-68
2023/07/30 01:28:28;;;;;;;3.22;2.30;;;;;23.70;99851.00;;;;2071493;28;20308;-68
2023/07/30 01:29:33;;;;;;;4.80;2.27;;;;;23.70;99893.00;;;;2069491;28;20214;-69
2023/07/30 01:30:40;;;;;;;3.25;2.38;;;;;23.70;99892.00;;;;2063213;28;20238;-69
2023/07/30 01:31:41;;;;;;;2.50;2.20;;;;;23.70;99873.00;;;;2064585;28;20230;-69
2023/07/30 01:32:42;;;;;;;4.55;2.30;;;;;23.70;99878.00;;;;2062949;28;20312;-69
2023/07/30 01:33:42;;;;;;;4.27;2.37;;;;;23.70;99889.00;;;;2061739;28;20214;-69
2023/07/30 01:34:43;;;;;;;2.50;2.30;;;;;23.70;99901.00;;;;2053834;28;20656;-69
2023/07/30 01:35:43;;;;;;;2.73;2.33;;;;;23.70;99898.00;;;;2064702;28;20225;-69
2023/07/30 01:36:43;;;;;;;3.23;1.97;;;;;23.70;99898.00;;;;2055325;28;20246;-69
2023/07/30 01:37:44;;;;;;;5.30;2.60;;;;;23.70;99876.00;;;;2045266;28;20330;-69
2023/07/30 01:38:44;;;;;;;7.87;1.90;;;;;23.70;99905.00;;;;2063649;28;20245;-69
2023/07/30 01:39:44;;;;;;;3.50;2.07;;;;;23.70;99897.00;;;;2069007;28;20261;-69
2023/07/30 01:40:45;;;;;;;3.27;2.30;;;;;23.70;99900.00;;;;2068483;28;20732;-69
2023/07/30 01:41:45;;;;;;;6.33;2.33;;;;;23.70;99908.00;;;;2056306;28;20786;-69
2023/07/30 01:42:45;;;;;;;2.23;1.90;;;;;23.70;99900.00;;;;2068664;28;20710;-69
2023/07/30 01:43:46;;;;;;;3.03;2.20;;;;;23.70;99901.00;;;;2068209;28;20299;-69
2023/07/30 01:44:46;;;;;;;2.57;2.17;;;;;23.70;99905.00;;;;2064217;28;20234;-69
2023/07/30 01:45:46;;;;;;;3.70;1.93;;;;;23.70;99910.00;;;;2069305;28;20315;-69
2023/07/30 01:46:47;;;;;;;4.97;2.20;;;;;23.70;99915.00;;;;2053202;28;20226;-69
2023/07/30 01:47:47;;;;;;;3.23;2.20;;;;;23.70;99914.00;;;;2065893;28;20218;-69
2023/07/30 01:48:47;;;;;;;4.20;1.97;;;;;23.70;99914.00;;;;2072833;28;20225;-69
2023/07/30 01:49:48;;;;;;;2.90;2.03;;;;;23.70;99917.00;;;;2073397;28;20217;-69
2023/07/30 01:50:48;;;;;;;3.43;2.07;;;;;23.70;99909.00;;;;2072996;28;20686;-69
2023/07/30 01:51:49;;;;;;;2.50;2.07;;;;;23.70;99908.00;;;;2065858;28;20217;-69
2023/07/30 01:52:49;;;;;;;2.87;2.27;;;;;23.70;99905.00;;;;2073206;28;20264;-69
2023/07/30 01:53:49;;;;;;;2.57;2.20;;;;;23.70;99914.00;;;;2070894;28;20221;-69
2023/07/30 01:54:50;;;;;;;4.50;2.10;;;;;23.70;99907.00;;;;2069548;28;20245;-69
2023/07/30 01:55:50;;;;;;;4.10;2.47;;;;;23.70;99920.00;;;;2069383;28;20225;-69
2023/07/30 01:56:51;;;;;;;3.20;1.90;;;;;23.70;99913.00;;;;2062312;28;20214;-69
2023/07/30 01:57:52;;;;;;;2.95;1.92;;;;;23.70;99905.00;;;;2077727;28;20214;-69
2023/07/30 01:58:52;;;;;;;3.00;2.17;;;;;23.70;99921.00;;;;2070906;28;20222;-69
2023/07/30 01:59:52;;;;;;;3.10;1.93;;;;;23.70;99929.00;;;;2072400;28;20283;-69
2023/07/30 02:00:53;;;;;;;2.40;1.93;;;;;23.70;99924.00;;;;2074903;28;20233;-69
2023/07/30 02:01:53;;;;;;;3.80;2.27;;;;;23.70;99920.00;;;;2062875;28;20225;-69
2023/07/30 02:02:53;;;;;;;2.90;1.57;;;;;23.70;99917.00;;;;2076503;28;20309;-69
2023/07/30 02:03:54;;;;;;;4.10;2.07;;;;;23.70;99916.00;;;;2067053;28;20304;-69
2023/07/30 02:04:54;;;;;;;2.80;1.70;;;;;23.70;99922.00;;;;2064889;28;20222;-69
2023/07/30 02:05:54;;;;;;;3.53;1.90;;;;;23.70;99920.00;;;;2055375;28;20238;-69
2023/07/30 02:06:55;;;;;;;2.97;1.90;;;;;23.70;99919.00;;;;2045924;28;20295;-69
2023/07/30 02:07:55;;;;;;;2.70;2.00;;;;;23.70;99920.00;;;;2069490;28;20252;-69
2023/07/30 02:08:55;;;;;;;2.43;2.10;;;;;23.70;99918.00;;;;2063952;28;20274;-69
2023/07/30 02:09:56;;;;;;;3.30;2.10;;;;;23.70;99925.00;;;;2073575;28;20233;-69
2023/07/30 02:11:00;;;;;;;2.60;2.10;;;;;23.70;99918.00;;;;2077621;28;20220;-69
2023/07/30 02:12:00;;;;;;;2.28;1.80;;;;;23.70;99916.00;;;;2065613;28;20217;-69
2023/07/30 02:13:00;;;;;;;2.13;1.50;;;;;23.70;99911.00;;;;2084278;28;20305;-69
2023/07/30 02:14:01;;;;;;;2.33;1.60;;;;;23.70;99920.00;;;;2077209;28;20209;-69
2023/07/30 02:15:01;;;;;;;3.60;2.10;;;;;23.70;99914.00;;;;2065875;28;20222;-69
2023/07/30 02:16:02;;;;;;;2.90;1.97;;;;;23.70;99923.00;;;;2069461;28;20563;-69
2023/07/30 02:17:02;;;;;;;2.07;1.80;;;;;23.70;99919.00;;;;2059344;28;20217;-69
2023/07/30 02:18:02;;;;;;;3.67;1.73;;;;;23.70;99913.00;;;;2076649;28;20220;-69
2023/07/30 02:19:03;;;;;;;2.60;2.00;;;;;23.70;99922.00;;;;2077013;28;20218;-69
2023/07/30 02:20:04;;;;;;;2.77;1.70;;;;;23.70;99920.00;;;;2067062;28;20277;-69
2023/07/30 02:21:04;;;;;;;5.87;2.00;;;;;23.70;99912.00;;;;2067145;28;20268;-69
2023/07/30 02:22:04;;;;;;;2.63;1.70;;;;;23.70;99916.00;;;;2065863;28;20423;-69
2023/07/30 02:23:05;;;;;;;2.13;1.80;;;;;23.70;99913.00;;;;2068424;28;20226;-69
2023/07/30 02:24:09;;;;;;;2.50;1.80;;;;;23.70;99910.00;;;;2067258;28;20215;-69
2023/07/30 02:25:10;;;;;;;3.28;1.75;;;;;23.70;99916.00;;;;2063694;28;20218;-69
2023/07/30 02:26:10;;;;;;;2.90;1.80;;;;;23.70;99914.00;;;;2060216;28;20229;-69
2023/07/30 02:27:10;;;;;;;3.50;1.50;;;;;23.70;99909.00;;;;2056693;28;20282;-69
2023/07/30 02:28:11;;;;;;;2.10;1.63;;;;;23.70;99909.00;;;;2078901;28;20264;-69
2023/07/30 02:29:11;;;;;;;4.10;1.97;;;;;23.70;99907.00;;;;2073000;28;20721;-69
2023/07/30 02:30:11;;;;;;;2.30;1.53;;;;;23.70;99910.00;;;;2071804;28;20756;-69
2023/07/30 02:31:12;;;;;;;2.40;2.00;;;;;23.60;99919.00;;;;2076467;28;20662;-69
2023/07/30 02:32:12;;;;;;;3.33;2.23;;;;;23.70;99916.00;;;;2063792;28;20768;-69
2023/07/30 02:33:12;;;;;;;2.33;2.00;;;;;23.70;99925.00;;;;2079255;28;20228;-69
2023/07/30 02:34:13;;;;;;;2.73;1.80;;;;;23.40;99912.00;;;;2071974;28;20214;-69
2023/07/30 02:35:13;;;;;;;1.80;1.67;;;;;23.70;99919.00;;;;2072143;28;20229;-69
2023/07/30 02:36:13;;;;;;;3.77;1.80;;;;;23.70;99910.00;;;;2072066;28;20222;-69
2023/07/30 02:37:14;;;;;;;2.77;1.90;;;;;23.70;99915.00;;;;2058109;28;20237;-69
2023/07/30 02:38:14;;;;;;;2.00;1.70;;;;;23.70;99922.00;;;;2071068;28;20246;-69
2023/07/30 02:39:14;;;;;;;3.73;2.40;;;;;23.60;99917.00;;;;2077618;28;20241;-69
2023/07/30 02:40:15;;;;;;;3.40;1.90;;;;;23.70;99921.00;;;;2076700;28;20213;-69
2023/07/30 02:41:16;;;;;;;2.40;1.90;;;;;23.70;99922.00;;;;2067278;28;20289;-69
2023/07/30 02:42:16;;;;;;;3.03;1.70;;;;;23.70;99921.00;;;;2062821;28;20233;-69
2023/07/30 02:43:16;;;;;;;2.17;1.80;;;;;23.70;99921.00;;;;2079615;28;20535;-69
2023/07/30 02:44:17;;;;;;;2.33;1.47;;;;;23.70;99920.00;;;;2075820;28;20222;-69
2023/07/30 02:45:17;;;;;;;2.90;2.00;;;;;23.70;99923.00;;;;2074875;28;20241;-69
2023/07/30 02:46:18;;;;;;;2.60;2.00;;;;;23.70;99930.00;;;;2077821;28;20224;-69
2023/07/30 02:47:18;;;;;;;2.57;1.87;;;;;23.60;99924.00;;;;2068404;28;20483;-69
2023/07/30 02:48:18;;;;;;;4.87;1.90;;;;;23.60;99913.00;;;;2071302;28;20222;-69
2023/07/30 02:49:19;;;;;;;2.70;1.60;;;;;23.60;99917.00;;;;2074598;28;20221;-69
2023/07/30 02:50:19;;;;;;;2.83;1.80;;;;;23.60;99919.00;;;;2072367;28;20237;-69
2023/07/30 02:51:19;;;;;;;2.20;1.70;;;;;23.70;99915.00;;;;2072552;28;20304;-69
2023/07/30 02:52:20;;;;;;;2.40;1.60;;;;;23.70;99918.00;;;;2064829;28;20229;-69
2023/07/30 02:53:20;;;;;;;2.37;1.90;;;;;23.60;99916.00;;;;2083264;28;20248;-69
2023/07/30 02:54:21;;;;;;;3.03;1.80;;;;;23.60;99917.00;;;;2074391;28;20230;-69
2023/07/30 02:55:22;;;;;;;2.13;1.60;;;;;23.70;99916.00;;;;2071372;28;20741;-69
2023/07/30 02:56:22;;;;;;;5.97;1.60;;;;;23.70;99920.00;;;;2075194;28;20209;-69
2023/07/30 02:57:22;;;;;;;3.17;2.10;;;;;23.60;99914.00;;;;2064003;28;20225;-69
2023/07/30 02:58:23;;;;;;;5.93;1.80;;;;;23.60;99915.00;;;;2072634;28;20262;-69
2023/07/30 02:59:23;;;;;;;2.50;1.80;;;;;23.60;99922.00;;;;2071062;28;20237;-69
2023/07/30 03:00:23;;;;;;;2.13;1.77;;;;;23.60;99913.00;;;;2066352;28;20603;-69
2023/07/30 03:01:24;;;;;;;5.30;1.87;;;;;23.60;99918.00;;;;2071241;28;20698;-69
2023/07/30 03:02:24;;;;;;;3.83;2.03;;;;;23.60;99918.00;;;;2070076;28;20648;-69
2023/07/30 03:03:24;;;;;;;2.00;1.70;;;;;23.60;99924.00;;;;2071969;28;20670;-69
2023/07/30 03:04:25;;;;;;;2.00;1.80;;;;;23.60;99924.00;;;;2078527;28;20761;-69
2023/07/30 03:05:27;;;;;;;2.63;1.60;;;;;23.60;99918.00;;;;2065302;28;20630;-69
2023/07/30 03:06:27;;;;;;;2.00;1.65;;;;;23.60;99917.00;;;;2077812;28;20213;-69
2023/07/30 03:07:28;;;;;;;2.90;1.53;;;;;23.60;99926.00;;;;2068570;28;20253;-69
2023/07/30 03:08:28;;;;;;;2.13;1.50;;;;;23.60;99927.00;;;;2079933;28;20210;-69
2023/07/30 03:09:28;;;;;;;3.47;2.00;;;;;23.60;99924.00;;;;2077452;28;20279;-69
2023/07/30 03:10:29;;;;;;;3.03;1.50;;;;;23.60;99891.00;;;;2065793;28;20314;-69
2023/07/30 03:11:29;;;;;;;2.40;1.40;;;;;23.60;99930.00;;;;2070306;28;20249;-69
2023/07/30 03:12:29;;;;;;;2.00;1.60;;;;;23.60;99926.00;;;;2066173;28;20232;-69
2023/07/30 03:13:30;;;;;;;1.77;1.60;;;;;23.60;99930.00;;;;2077076;28;20245;-68
2023/07/30 03:14:30;;;;;;;2.80;1.40;;;;;23.60;99925.00;;;;2071683;28;20238;-68
2023/07/30 03:15:30;;;;;;;2.13;1.47;;;;;23.60;99928.00;;;;2061426;28;20217;-68
2023/07/30 03:16:30;;;;;;;1.83;1.73;;;;;23.60;99928.00;;;;2070368;28;20222;-68
2023/07/30 03:17:31;;;;;;;2.17;1.90;;;;;23.60;99925.00;;;;2061066;28;20637;-68
2023/07/30 03:18:31;;;;;;;1.90;1.60;;;;;23.60;99924.00;;;;2080117;28;20237;-69
2023/07/30 03:19:31;;;;;;;2.03;1.40;;;;;23.60;99929.00;;;;2072263;28;20214;-69
2023/07/30 03:20:32;;;;;;;3.23;1.97;;;;;23.60;99937.00;;;;2079665;28;20221;-69
2023/07/30 03:21:32;;;;;;;2.37;1.60;;;;;23.60;99930.00;;;;2068887;28;20225;-69
2023/07/30 03:22:32;;;;;;;2.90;1.90;;;;;23.60;99930.00;;;;2061183;28;20706;-69
2023/07/30 03:23:33;;;;;;;1.70;1.47;;;;;23.60;99926.00;;;;2077843;28;20245;-69
2023/07/30 03:24:33;;;;;;;3.10;1.70;;;;;23.60;99928.00;;;;2075631;28;20313;-69
2023/07/30 03:25:34;;;;;;;2.00;1.50;;;;;23.60;99925.00;;;;2064147;28;20227;-69
2023/07/30 03:26:34;;;;;;;2.27;1.90;;;;;23.60;99925.00;;;;2070420;28;20300;-69
2023/07/30 03:27:34;;;;;;;2.40;1.73;;;;;23.60;99920.00;;;;2062617;28;20254;-69
2023/07/30 03:28:35;;;;;;;2.07;1.50;;;;;23.60;99928.00;;;;2069388;28;20229;-69
2023/07/30 03:29:35;;;;;;;1.80;1.50;;;;;23.60;99927.00;;;;2062392;28;20301;-69
2023/07/30 03:30:35;;;;;;;3.60;1.67;;;;;23.60;99927.00;;;;2064837;28;20226;-69
2023/07/30 03:31:35;;;;;;;1.90;1.60;;;;;23.60;99928.00;;;;2064233;28;20234;-69
2023/07/30 03:32:36;;;;;;;2.43;1.50;;;;;23.60;99924.00;;;;2060033;28;20242;-69
2023/07/30 03:33:39;;;;;;;2.20;1.80;;;;;23.60;99929.00;;;;2070407;28;20284;-69
2023/07/30 03:34:39;;;;;;;3.22;2.00;;;;;23.60;99933.00;;;;2062173;28;20218;-69
2023/07/30 03:35:39;;;;;;;4.00;1.80;;;;;23.60;99930.00;;;;2068451;28;20710;-69
2023/07/30 03:36:40;;;;;;;3.07;1.50;;;;;23.60;99932.00;;;;2063796;28;20229;-69
2023/07/30 03:37:40;;;;;;;2.33;1.67;;;;;23.60;99930.00;;;;2065625;28;20280;-69
2023/07/30 03:38:43;;;;;;;3.63;1.70;;;;;23.60;99929.00;;;;2078485;28;20216;-69
2023/07/30 03:39:44;;;;;;;3.00;1.70;;;;;23.60;99931.00;;;;2063569;28;20665;-69
2023/07/30 03:40:44;;;;;;;1.90;1.40;;;;;23.60;99933.00;;;;2071616;28;20312;-69
2023/07/30 03:41:44;;;;;;;1.80;1.60;;;;;23.60;99936.00;;;;2069690;28;20685;-69
2023/07/30 03:42:45;;;;;;;1.90;1.37;;;;;23.60;99938.00;;;;2071508;28;20233;-69
2023/07/30 03:43:45;;;;;;;2.70;1.70;;;;;23.60;99937.00;;;;2079057;28;20259;-69
2023/07/30 03:44:45;;;;;;;5.87;2.13;;;;;23.60;99942.00;;;;2073698;28;21123;-69
2023/07/30 03:45:46;;;;;;;2.00;1.80;;;;;23.60;99934.00;;;;2077644;28;20924;-69
2023/07/30 03:46:46;;;;;;;2.00;1.47;;;;;23.60;99944.00;;;;2059383;28;20721;-69
2023/07/30 03:47:46;;;;;;;1.87;1.70;;;;;23.60;99934.00;;;;2071612;28;20343;-69
2023/07/30 03:48:47;;;;;;;3.43;1.70;;;;;23.60;99941.00;;;;2069547;28;20226;-69
2023/07/30 03:49:47;;;;;;;1.73;1.50;;;;;23.60;99941.00;;;;2068305;28;20218;-69
2023/07/30 03:50:47;;;;;;;3.13;1.80;;;;;23.60;99935.00;;;;2070827;28;20222;-69
2023/07/30 03:51:48;;;;;;;2.30;1.67;;;;;23.60;99944.00;;;;2055705;28;20237;-69
2023/07/30 03:52:48;;;;;;;2.40;1.70;;;;;23.60;99940.00;;;;2066109;28;20215;-69
2023/07/30 03:53:48;;;;;;;2.23;1.30;;;;;23.60;99948.00;;;;2071670;28;20214;-69
2023/07/30 03:54:49;;;;;;;3.20;1.60;;;;;23.60;99945.00;;;;2070654;28;20230;-69
2023/07/30 03:55:49;;;;;;;3.00;1.40;;;;;23.60;99949.00;;;;2071125;28;20694;-69
2023/07/30 03:56:49;;;;;;;2.57;1.70;;;;;23.60;99945.00;;;;2058671;28;20721;-69
2023/07/30 03:57:49;;;;;;;2.47;1.60;;;;;23.60;99951.00;;;;2070320;28;20226;-69
2023/07/30 03:58:50;;;;;;;2.37;1.80;;;;;23.60;99953.00;;;;2062929;28;20598;-69
2023/07/30 03:59:50;;;;;;;1.70;1.60;;;;;23.60;99954.00;;;;2070724;28;20629;-69
2023/07/30 04:00:50;;;;;;;3.87;1.80;;;;;23.60;99954.00;;;;2066727;28;20765;-68
2023/07/30 04:01:51;;;;;;;3.90;1.57;;;;;23.60;99950.00;;;;2065686;28;20681;-68
2023/07/30 04:02:51;;;;;;;2.90;1.70;;;;;23.60;99954.00;;;;2072155;28;20732;-68
2023/07/30 04:03:51;;;;;;;3.00;1.70;;;;;23.60;99950.00;;;;2072135;28;20214;-69
2023/07/30 04:04:52;;;;;;;1.87;1.60;;;;;23.60;99946.00;;;;2075138;28;20698;-69
2023/07/30 04:05:52;;;;;;;2.47;1.50;;;;;23.60;99951.00;;;;2072201;28;20221;-69
2023/07/30 04:06:52;;;;;;;2.43;1.73;;;;;23.60;99955.00;;;;2068084;28;20304;-69
2023/07/30 04:07:53;;;;;;;3.40;1.93;;;;;23.60;99959.00;;;;2070507;28;20203;-69
2023/07/30 04:08:53;;;;;;;3.50;1.77;;;;;23.60;99957.00;;;;2069698;28;20225;-69
2023/07/30 04:09:53;;;;;;;3.10;2.07;;;;;23.60;99961.00;;;;2067793;28;20218;-69
2023/07/30 04:10:54;;;;;;;2.90;1.60;;;;;23.60;99962.00;;;;2072726;28;20230;-69
2023/07/30 04:11:54;;;;;;;2.67;1.90;;;;;23.60;99956.00;;;;2061104;28;20253;-69
2023/07/30 04:12:54;;;;;;;2.20;1.33;;;;;23.50;99952.00;;;;2070082;28;20222;-69
2023/07/30 04:13:55;;;;;;;2.27;1.13;;;;;23.50;99960.00;;;;2073586;28;20802;-69
2023/07/30 04:14:55;;;;;;;2.50;1.80;;;;;23.50;99954.00;;;;2072171;28;20718;-69
2023/07/30 04:15:55;;;;;;;2.00;1.43;;;;;23.60;99954.00;;;;2069047;28;20713;-69
2023/07/30 04:16:56;;;;;;;2.30;1.50;;;;;23.50;99956.00;;;;2060546;28;20874;-69
2023/07/30 04:17:56;;;;;;;2.37;1.70;;;;;23.50;99946.00;;;;2076805;28;20205;-69
2023/07/30 04:18:56;;;;;;;2.60;1.63;;;;;23.50;99960.00;;;;2084219;28;20205;-69
2023/07/30 04:19:57;;;;;;;3.20;1.80;;;;;23.50;99952.00;;;;2069592;28;20210;-69
2023/07/30 04:20:57;;;;;;;3.97;1.47;;;;;23.50;99950.00;;;;2063941;28;20222;-69
2023/07/30 04:21:57;;;;;;;2.57;1.50;;;;;23.50;99962.00;;;;2057312;28;20241;-69
2023/07/30 04:22:58;;;;;;;2.13;1.63;;;;;23.50;99955.00;;;;2070087;28;20222;-69
2023/07/30 04:23:58;;;;;;;2.70;1.63;;;;;23.60;99915.00;;;;2075064;28;20340;-69
2023/07/30 04:24:58;;;;;;;3.23;1.50;;;;;23.50;99945.00;;;;2073493;28;20552;-69
2023/07/30 04:25:59;;;;;;;3.60;1.83;;;;;23.50;99950.00;;;;2074055;28;20698;-69
2023/07/30 04:27:00;;;;;;;2.90;1.60;;;;;23.50;99953.00;;;;2062069;28;20554;-69
2023/07/30 04:28:00;;;;;;;4.57;1.77;;;;;23.60;99960.00;;;;2073022;28;20289;-69
2023/07/30 04:29:01;;;;;;;2.13;1.53;;;;;23.50;99954.00;;;;2071938;28;20237;-69
2023/07/30 04:30:01;;;;;;;3.83;1.90;;;;;23.50;99944.00;;;;2073929;28;20206;-69
2023/07/30 04:31:01;;;;;;;1.80;1.40;;;;;23.50;99950.00;;;;2073546;28;20218;-69
2023/07/30 04:32:02;;;;;;;2.10;1.50;;;;;23.50;99943.00;;;;2063477;28;20237;-69
2023/07/30 04:33:02;;;;;;;1.77;1.60;;;;;23.50;99951.00;;;;2071932;28;20210;-69
2023/07/30 04:34:02;;;;;;;3.57;1.83;;;;;23.50;99946.00;;;;2068207;28;20210;-69
2023/07/30 04:35:03;;;;;;;1.77;1.40;;;;;23.50;99949.00;;;;2068592;28;20215;-69
2023/07/30 04:36:04;;;;;;;2.40;1.43;;;;;23.50;99946.00;;;;2075212;28;20218;-69
2023/07/30 04:37:04;;;;;;;3.03;1.87;;;;;23.50;99945.00;;;;2058675;28;20271;-69
2023/07/30 04:38:04;;;;;;;3.50;1.90;;;;;23.50;99952.00;;;;2058221;28;20210;-69
2023/07/30 04:39:05;;;;;;;2.67;1.70;;;;;23.50;99945.00;;;;2073990;28;21559;-69
2023/07/30 04:40:06;;;;;;;2.97;1.30;;;;;23.50;99934.00;;;;2078422;28;20922;-69
2023/07/30 04:41:06;;;;;;;1.70;1.50;;;;;23.50;99954.00;;;;2067802;28;20211;-69
2023/07/30 04:42:07;;;;;;;3.20;1.60;;;;;23.50;99914.00;;;;2053711;28;20265;-69
2023/07/30 04:43:08;;;;;;;2.90;1.57;;;;;23.50;99947.00;;;;2060652;28;20254;-69
2023/07/30 04:44:08;;;;;;;4.93;1.60;;;;;23.50;99955.00;;;;2075354;28;20201;-69
2023/07/30 04:45:09;;;;;;;2.50;1.43;;;;;23.50;99958.00;;;;2075701;28;20202;-69
2023/07/30 04:46:09;;;;;;;3.60;1.80;;;;;23.50;99957.00;;;;2074880;28;20224;-69
2023/07/30 04:47:09;;;;;;;2.20;1.73;;;;;23.50;99950.00;;;;2064478;28;20222;-69
2023/07/30 04:48:11;;;;;;;3.40;1.90;;;;;23.50;99961.00;;;;2078243;28;20750;-69
2023/07/30 04:49:11;;;;;;;3.33;1.70;;;;;23.50;99951.00;;;;2079087;28;20686;-69
2023/07/30 04:50:11;;;;;;;2.10;1.40;;;;;23.50;99968.00;;;;2070447;28;20225;-69
2023/07/30 04:51:12;;;;;;;2.00;1.40;;;;;23.50;99961.00;;;;2067109;28;20222;-69
2023/07/30 04:52:12;;;;;;;1.90;1.47;;;;;23.50;99964.00;;;;2064195;28;20275;-69
2023/07/30 04:53:12;;;;;;;2.13;1.40;;;;;23.50;99966.00;;;;2079224;28;20222;-69
2023/07/30 04:54:13;;;;;;;2.40;1.90;;;;;23.50;99957.00;;;;2072770;28;20215;-69
2023/07/30 04:55:13;;;;;;;2.83;2.07;;;;;23.50;99954.00;;;;2072941;28;20237;-70
2023/07/30 04:56:13;;;;;;;2.83;2.17;;;;;23.50;99944.00;;;;2076363;28;20225;-69
2023/07/30 04:57:14;;;;;;;2.63;1.70;;;;;23.50;99960.00;;;;2064390;28;20218;-69
2023/07/30 04:58:14;;;;;;;4.03;1.70;;;;;23.50;99954.00;;;;2069407;28;20241;-69
2023/07/30 04:59:15;;;;;;;2.77;1.43;;;;;23.50;99960.00;;;;2063943;28;20214;-69
2023/07/30 05:00:15;;;;;;;1.73;1.60;;;;;23.50;99958.00;;;;2073069;28;20215;-69
2023/07/30 05:01:16;;;;;;;2.60;1.43;;;;;23.50;99964.00;;;;2074677;28;20218;-69
2023/07/30 05:02:16;;;;;;;1.93;1.33;;;;;23.50;99968.00;;;;2057228;28;20223;-69
2023/07/30 05:03:16;;;;;;;2.43;1.60;;;;;23.50;99957.00;;;;2067209;28;20220;-69